createdAt,value
2019-02-23T00:01:52.282Z,10.00
2019-02-23T00:04:20.715Z,9.90
2019-02-23T00:06:49.164Z,9.70
2019-02-23T00:09:17.593Z,9.60
2019-02-23T00:11:46.055Z,9.60
2019-02-23T00:14:14.560Z,9.40
2019-02-23T00:16:43.010Z,9.40
2019-02-23T00:19:11.448Z,9.40
2019-02-23T00:21:39.965Z,9.40
2019-02-23T00:24:08.434Z,9.30
2019-02-23T00:26:36.875Z,9.30
2019-02-23T00:29:05.328Z,9.20
2019-02-23T00:31:33.789Z,9.00
2019-02-23T00:34:02.294Z,8.90
2019-02-23T00:36:31.152Z,8.80
2019-02-23T00:38:59.583Z,8.80
2019-02-23T00:41:28.253Z,8.70
2019-02-23T00:43:56.750Z,8.70
2019-02-23T00:46:25.178Z,8.80
2019-02-23T00:48:53.644Z,8.90
2019-02-23T00:51:22.210Z,8.90
2019-02-23T00:53:50.744Z,8.90
2019-02-23T00:56:19.198Z,8.90
2019-02-23T00:58:47.650Z,9.00
2019-02-23T01:01:16.091Z,9.00
2019-02-23T01:03:44.538Z,9.00
2019-02-23T01:06:13.035Z,9.10
2019-02-23T01:08:41.499Z,9.10
2019-02-23T01:11:09.935Z,9.10
2019-02-23T01:13:38.422Z,9.10
2019-02-23T01:16:06.861Z,9.00
2019-02-23T01:18:35.405Z,9.00
2019-02-23T01:21:23.253Z,8.90
2019-02-23T01:23:51.777Z,8.90
2019-02-23T01:26:20.327Z,8.90
2019-02-23T01:28:48.844Z,8.80
2019-02-23T01:31:17.278Z,8.80
2019-02-23T01:33:45.797Z,8.70
2019-02-23T01:36:14.277Z,8.70
2019-02-23T01:38:43.102Z,8.70
2019-02-23T01:41:11.654Z,8.60
2019-02-23T01:43:40.114Z,8.70
2019-02-23T01:46:08.611Z,8.60
2019-02-23T01:48:37.141Z,8.60
2019-02-23T01:51:17.022Z,8.60
2019-02-23T01:53:45.751Z,8.70
2019-02-23T01:56:14.278Z,8.70
2019-02-23T01:58:42.727Z,8.70
2019-02-23T02:01:12.070Z,8.80
2019-02-23T02:03:40.656Z,8.80
2019-02-23T02:06:09.354Z,8.90
2019-02-23T02:08:38.010Z,8.90
2019-02-23T02:11:06.524Z,8.90
2019-02-23T02:13:35.642Z,9.00
2019-02-23T02:16:04.119Z,8.90
2019-02-23T02:18:32.567Z,8.90
2019-02-23T02:21:01.004Z,8.90
2019-02-23T02:23:29.452Z,8.90
2019-02-23T02:25:57.905Z,8.90
2019-02-23T02:28:26.419Z,8.90
2019-02-23T02:30:54.859Z,8.90
2019-02-23T02:33:23.350Z,9.00
2019-02-23T02:35:51.818Z,9.10
2019-02-23T02:38:20.323Z,9.00
2019-02-23T02:40:48.759Z,9.00
2019-02-23T02:43:17.188Z,9.00
2019-02-23T02:45:45.636Z,8.90
2019-02-23T02:48:14.109Z,8.90
2019-02-23T02:50:42.559Z,8.90
2019-02-23T02:53:10.991Z,8.90
2019-02-23T02:55:39.458Z,8.80
2019-02-23T02:58:07.900Z,8.80
2019-02-23T03:00:36.417Z,8.80
2019-02-23T03:03:04.845Z,8.90
2019-02-23T03:05:33.299Z,8.80
2019-02-23T03:08:01.759Z,8.80
2019-02-23T03:10:30.224Z,8.80
2019-02-23T03:12:58.740Z,8.80
2019-02-23T03:15:27.202Z,8.70
2019-02-23T03:17:55.768Z,8.70
2019-02-23T03:20:35.894Z,8.60
2019-02-23T03:22:54.443Z,8.60
2019-02-23T03:25:22.910Z,8.60
2019-02-23T03:27:51.417Z,8.50
2019-02-23T03:30:19.877Z,8.30
2019-02-23T03:32:48.336Z,8.00
2019-02-23T03:35:17.812Z,7.90
2019-02-23T03:37:46.336Z,7.80
2019-02-23T03:40:14.879Z,7.80
2019-02-23T03:42:43.401Z,7.70
2019-02-23T03:45:11.858Z,7.70
2019-02-23T03:47:40.275Z,7.70
2019-02-23T03:50:08.803Z,7.60
2019-02-23T03:52:42.875Z,7.60
2019-02-23T03:55:11.310Z,7.60
2019-02-23T03:57:39.752Z,7.60
2019-02-23T04:00:10.040Z,7.50
2019-02-23T04:02:38.541Z,7.60
2019-02-23T04:05:07.091Z,7.60
2019-02-23T04:07:35.579Z,7.60
2019-02-23T04:10:06.182Z,7.50
2019-02-23T04:12:34.602Z,7.40
2019-02-23T04:15:03.685Z,7.50
2019-02-23T04:17:32.109Z,7.40
2019-02-23T04:20:01.979Z,7.40
2019-02-23T04:22:30.527Z,7.50
2019-02-23T04:24:58.950Z,7.40
2019-02-23T04:27:27.456Z,7.10
2019-02-23T04:29:56.890Z,6.90
2019-02-23T04:32:25.414Z,6.70
2019-02-23T04:34:53.940Z,6.60
2019-02-23T04:37:22.447Z,6.50
2019-02-23T04:39:50.943Z,6.50
2019-02-23T04:42:38.735Z,6.40
2019-02-23T04:45:08.203Z,6.30
2019-02-23T04:47:36.659Z,6.30
2019-02-23T04:50:09.754Z,6.30
2019-02-23T04:52:38.222Z,6.30
2019-02-23T04:55:08.288Z,6.30
2019-02-23T04:57:36.757Z,6.40
2019-02-23T05:00:08.371Z,6.40
2019-02-23T05:02:36.826Z,6.50
2019-02-23T05:05:06.741Z,6.60
2019-02-23T05:07:35.184Z,6.60
2019-02-23T05:10:04.589Z,6.60
2019-02-23T05:12:33.118Z,6.70
2019-02-23T05:15:01.626Z,6.80
2019-02-23T05:17:30.161Z,6.90
2019-02-23T05:19:58.694Z,6.90
2019-02-23T05:22:27.163Z,7.00
2019-02-23T05:24:55.655Z,7.00
2019-02-23T05:27:24.124Z,7.00
2019-02-23T05:29:52.562Z,7.00
2019-02-23T05:32:21.019Z,7.10
2019-02-23T05:34:49.462Z,7.10
2019-02-23T05:37:17.915Z,7.10
2019-02-23T05:39:46.361Z,7.10
2019-02-23T05:42:14.815Z,7.00
2019-02-23T05:44:43.316Z,7.00
2019-02-23T05:47:14.660Z,6.90
2019-02-23T05:49:43.098Z,6.90
2019-02-23T05:52:11.700Z,7.00
2019-02-23T05:54:40.137Z,7.00
2019-02-23T05:57:08.663Z,6.90
2019-02-23T05:59:37.107Z,6.90
2019-02-23T06:02:05.631Z,6.90
2019-02-23T06:04:34.085Z,6.90
2019-02-23T06:07:02.592Z,6.80
2019-02-23T06:09:31.067Z,6.90
2019-02-23T06:11:59.626Z,6.80
2019-02-23T06:14:28.060Z,6.80
2019-02-23T06:16:56.516Z,6.90
2019-02-23T06:19:25.036Z,6.90
2019-02-23T06:21:54.555Z,6.80
2019-02-23T06:24:23.308Z,6.80
2019-02-23T06:26:51.747Z,6.80
2019-02-23T06:29:20.235Z,6.70
2019-02-23T06:31:49.002Z,6.70
2019-02-23T06:34:17.560Z,6.70
2019-02-23T06:36:46.047Z,6.60
2019-02-23T06:39:14.563Z,6.70
2019-02-23T06:41:42.999Z,6.70
2019-02-23T06:44:11.447Z,6.70
2019-02-23T06:46:39.894Z,6.80
2019-02-23T06:49:08.423Z,6.80
2019-02-23T06:51:36.866Z,6.90
2019-02-23T06:54:05.318Z,6.90
2019-02-23T06:56:33.823Z,7.00
2019-02-23T06:59:02.364Z,7.10
2019-02-23T07:01:30.962Z,7.10
2019-02-23T07:03:59.583Z,7.30
2019-02-23T07:06:28.025Z,7.40
2019-02-23T07:08:56.493Z,7.60
2019-02-23T07:11:24.942Z,7.60
2019-02-23T07:13:53.422Z,7.70
2019-02-23T07:16:21.938Z,7.80
2019-02-23T07:18:50.390Z,7.80
2019-02-23T07:21:18.834Z,8.00
2019-02-23T07:23:47.292Z,8.30
2019-02-23T07:26:15.732Z,8.50
2019-02-23T07:28:44.197Z,8.80
2019-02-23T07:31:12.638Z,9.10
2019-02-23T07:33:41.100Z,9.40
2019-02-23T07:36:09.542Z,9.80
2019-02-23T07:38:38.018Z,10.00
2019-02-23T07:41:06.453Z,10.20
2019-02-23T07:43:34.909Z,10.30
2019-02-23T07:46:03.379Z,10.40
2019-02-23T07:48:31.856Z,10.40
2019-02-23T07:51:00.293Z,10.40
2019-02-23T07:53:28.863Z,10.50
2019-02-23T07:55:57.376Z,10.60
2019-02-23T07:58:25.823Z,10.80
2019-02-23T08:00:54.281Z,11.00
2019-02-23T08:03:22.727Z,11.10
2019-02-23T08:05:51.214Z,11.20
2019-02-23T08:08:19.715Z,11.40
2019-02-23T08:10:48.295Z,11.50
2019-02-23T08:13:16.740Z,11.60
2019-02-23T08:15:45.337Z,11.80
2019-02-23T08:18:13.992Z,11.80
2019-02-23T08:20:42.466Z,11.80
2019-02-23T08:23:10.947Z,11.90
2019-02-23T08:25:42.058Z,12.10
2019-02-23T08:28:10.515Z,12.40
2019-02-23T08:30:38.974Z,12.50
2019-02-23T08:33:07.436Z,12.60
2019-02-23T08:35:36.035Z,12.70
2019-02-23T08:38:04.471Z,12.90
2019-02-23T08:40:32.927Z,13.10
2019-02-23T08:43:01.419Z,13.20
2019-02-23T08:45:29.899Z,13.20
2019-02-23T08:47:58.338Z,13.00
2019-02-23T08:50:26.796Z,13.10
2019-02-23T08:52:55.226Z,13.30
2019-02-23T08:55:23.684Z,13.50
2019-02-23T08:57:52.129Z,13.70
2019-02-23T09:00:20.727Z,13.90
2019-02-23T09:02:49.159Z,14.00
2019-02-23T09:05:17.758Z,14.00
2019-02-23T09:07:46.189Z,14.00
2019-02-23T09:10:15.285Z,14.00
2019-02-23T09:12:43.814Z,14.00
2019-02-23T09:15:12.634Z,14.30
2019-02-23T09:17:41.240Z,14.50
2019-02-23T09:20:11.349Z,14.80
2019-02-23T09:22:39.867Z,15.00
2019-02-23T09:25:10.256Z,15.20
2019-02-23T09:27:38.882Z,15.10
2019-02-23T09:30:12.400Z,15.10
2019-02-23T09:32:40.911Z,15.20
2019-02-23T09:35:09.416Z,15.10
2019-02-23T09:37:37.874Z,15.10
2019-02-23T09:40:20.171Z,15.10
2019-02-23T09:42:48.682Z,15.30
2019-02-23T09:45:17.720Z,15.20
2019-02-23T09:47:46.307Z,15.00
2019-02-23T09:50:14.733Z,15.10
2019-02-23T09:52:43.206Z,15.20
2019-02-23T09:55:11.714Z,15.40
2019-02-23T09:57:40.164Z,15.60
2019-02-23T10:00:11.327Z,15.70
2019-02-23T10:02:39.860Z,15.60
2019-02-23T10:05:09.539Z,15.60
2019-02-23T10:07:38.002Z,15.50
2019-02-23T10:10:09.640Z,15.50
2019-02-23T10:12:38.107Z,15.40
2019-02-23T10:15:09.442Z,15.30
2019-02-23T10:17:37.898Z,15.20
2019-02-23T10:20:11.438Z,15.20
2019-02-23T10:22:40.006Z,15.30
2019-02-23T10:25:08.689Z,15.20
2019-02-23T10:27:37.140Z,15.20
2019-02-23T10:30:16.135Z,15.20
2019-02-23T10:32:44.652Z,15.20
2019-02-23T10:35:13.980Z,15.00
2019-02-23T10:37:42.424Z,14.90
2019-02-23T10:40:12.320Z,14.80
2019-02-23T10:42:40.926Z,14.90
2019-02-23T10:45:11.474Z,15.20
2019-02-23T10:47:39.926Z,15.50
2019-02-23T10:50:12.859Z,15.60
2019-02-23T10:52:41.344Z,15.70
2019-02-23T10:55:12.157Z,15.80
2019-02-23T10:57:40.618Z,15.90
2019-02-23T11:00:13.840Z,16.10
2019-02-23T11:02:42.327Z,16.20
2019-02-23T11:05:11.233Z,16.40
2019-02-23T11:07:39.753Z,16.60
2019-02-23T11:10:09.527Z,16.80
2019-02-23T11:12:38.063Z,17.10
2019-02-23T11:15:11.891Z,17.40
2019-02-23T11:17:40.528Z,17.80
2019-02-23T11:20:10.701Z,18.10
2019-02-23T11:22:39.291Z,18.40
2019-02-23T11:25:12.203Z,18.60
2019-02-23T11:27:41.128Z,19.00
2019-02-23T11:30:16.911Z,19.20
2019-02-23T11:32:45.366Z,19.20
2019-02-23T11:35:17.501Z,19.20
2019-02-23T11:37:45.758Z,19.20
2019-02-23T11:40:15.458Z,19.30
2019-02-23T11:42:44.036Z,19.40
2019-02-23T11:45:12.539Z,19.50
2019-02-23T11:47:41.143Z,19.60
2019-02-23T11:50:11.324Z,19.60
2019-02-23T11:52:39.860Z,19.60
2019-02-23T11:55:08.712Z,19.70
2019-02-23T11:57:37.245Z,19.70
2019-02-23T12:00:14.524Z,19.90
2019-02-23T12:02:52.056Z,20.30
2019-02-23T12:05:13.585Z,20.60
2019-02-23T12:07:42.101Z,20.60
2019-02-23T12:10:15.668Z,20.50
2019-02-23T12:12:44.128Z,20.30
2019-02-23T12:15:12.782Z,20.00
2019-02-23T12:17:41.210Z,19.90
2019-02-23T12:20:10.905Z,19.90
2019-02-23T12:22:39.483Z,20.10
2019-02-23T12:25:08.379Z,20.10
2019-02-23T12:27:36.802Z,20.20
2019-02-23T12:30:07.604Z,20.20
2019-02-23T12:32:36.042Z,20.10
2019-02-23T12:35:05.450Z,19.90
2019-02-23T12:37:33.898Z,19.80
2019-02-23T12:40:02.481Z,19.80
2019-02-23T12:42:31.067Z,19.80
2019-02-23T12:44:59.535Z,19.90
2019-02-23T12:47:27.963Z,19.90
2019-02-23T12:49:56.414Z,19.90
2019-02-23T12:52:24.855Z,20.00
2019-02-23T12:54:56.019Z,20.00
2019-02-23T12:57:24.474Z,20.00
2019-02-23T12:59:53.861Z,20.10
2019-02-23T13:02:22.348Z,20.10
2019-02-23T13:04:50.815Z,20.10
2019-02-23T13:07:19.252Z,19.90
2019-02-23T13:09:47.800Z,19.70
2019-02-23T13:12:22.156Z,19.50
2019-02-23T13:15:02.684Z,19.30
2019-02-23T13:18:01.576Z,19.20
2019-02-23T13:20:39.045Z,19.20
2019-02-23T13:23:18.905Z,18.80
2019-02-23T13:26:23.730Z,18.30
2019-02-23T13:29:03.941Z,17.80
2019-02-23T13:31:53.740Z,17.40
2019-02-23T13:34:36.944Z,17.30
2019-02-23T13:37:11.454Z,17.40
2019-02-23T13:39:50.091Z,17.50
2019-02-23T13:42:47.095Z,17.70
2019-02-23T13:45:33.702Z,17.80
2019-02-23T13:48:29.244Z,17.80
2019-02-23T13:51:08.156Z,17.80
2019-02-23T13:53:51.650Z,17.80
2019-02-23T13:56:35.089Z,17.80
2019-02-23T13:59:21.719Z,17.70
2019-02-23T14:02:09.943Z,17.60
2019-02-23T14:04:57.862Z,17.50
2019-02-23T14:07:38.410Z,17.20
2019-02-23T14:10:38.873Z,16.90
2019-02-23T14:13:10.475Z,16.60
2019-02-23T14:16:01.807Z,16.40
2019-02-23T14:18:41.559Z,16.30
2019-02-23T14:21:34.444Z,16.10
2019-02-23T14:24:23.648Z,16.00
2019-02-23T14:27:04.198Z,15.90
2019-02-23T14:29:44.675Z,15.90
2019-02-23T14:32:37.463Z,15.80
2019-02-23T14:35:20.484Z,15.70
2019-02-23T14:37:55.102Z,15.70
2019-02-23T14:40:38.858Z,15.60
2019-02-23T14:43:19.021Z,15.70
2019-02-23T14:46:13.148Z,15.60
2019-02-23T14:49:04.164Z,15.70
2019-02-23T14:51:47.723Z,15.60
2019-02-23T14:54:22.065Z,15.50
2019-02-23T14:56:56.723Z,15.50
2019-02-23T14:59:37.033Z,15.60
2019-02-23T15:02:26.745Z,15.70
2019-02-23T15:05:01.216Z,15.80
2019-02-23T15:08:00.067Z,15.70
2019-02-23T15:10:50.914Z,15.70
2019-02-23T15:13:48.022Z,15.70
2019-02-23T15:16:19.562Z,15.60
2019-02-23T15:18:57.040Z,15.30
2019-02-23T15:21:37.065Z,15.00
2019-02-23T15:24:29.491Z,14.90
2019-02-23T15:27:17.518Z,14.90
2019-02-23T15:30:10.111Z,14.90
2019-02-23T15:32:47.333Z,14.90
2019-02-23T15:35:24.434Z,14.80
2019-02-23T15:37:58.527Z,14.60
2019-02-23T15:40:32.717Z,14.50
2019-02-23T15:43:07.308Z,14.40
2019-02-23T15:45:38.906Z,14.40
2019-02-23T15:48:25.846Z,14.40
2019-02-23T15:50:54.338Z,14.40
2019-02-23T15:53:22.901Z,14.30
2019-02-23T15:55:51.454Z,14.30
2019-02-23T15:58:20.221Z,14.10
2019-02-23T16:00:49.165Z,13.90
2019-02-23T16:03:19.302Z,13.80
2019-02-23T16:05:47.855Z,13.70
2019-02-23T16:08:16.361Z,13.60
2019-02-23T16:10:44.887Z,13.50
2019-02-23T16:13:13.420Z,13.50
2019-02-23T16:15:41.889Z,13.50
2019-02-23T16:18:10.383Z,13.50
2019-02-23T16:20:38.973Z,13.30
2019-02-23T16:23:07.477Z,13.30
2019-02-23T16:25:38.606Z,13.20
2019-02-23T16:28:06.335Z,13.10
2019-02-23T16:30:34.863Z,13.10
2019-02-23T16:33:03.391Z,13.10
2019-02-23T16:35:31.836Z,13.10
2019-02-23T16:38:00.280Z,13.10
2019-02-23T16:40:28.740Z,13.00
2019-02-23T16:42:57.190Z,12.90
2019-02-23T16:45:25.687Z,12.90
2019-02-23T16:47:54.184Z,12.80
2019-02-23T16:50:22.695Z,12.80
2019-02-23T16:52:51.192Z,12.70
2019-02-23T16:55:19.641Z,12.60
2019-02-23T16:57:48.076Z,12.50
2019-02-23T17:00:16.626Z,12.50
2019-02-23T17:02:45.087Z,12.40
2019-02-23T17:05:13.638Z,12.20
2019-02-23T17:07:42.124Z,12.20
2019-02-23T17:10:10.580Z,12.10
2019-02-23T17:12:39.015Z,12.00
2019-02-23T17:15:10.515Z,11.80
2019-02-23T17:17:37.976Z,11.70
2019-02-23T17:20:06.729Z,11.60
2019-02-23T17:22:35.371Z,11.60
2019-02-23T17:25:05.078Z,11.50
2019-02-23T17:27:36.439Z,11.60
2019-02-23T17:30:04.058Z,11.60
2019-02-23T17:32:32.499Z,11.60
2019-02-23T17:35:00.961Z,11.50
2019-02-23T17:37:29.388Z,11.40
2019-02-23T17:39:57.884Z,11.30
2019-02-23T17:44:56.577Z,11.30
2019-02-23T17:47:25.028Z,11.20
2019-02-23T17:49:53.540Z,11.20
2019-02-23T17:52:22.105Z,11.10
2019-02-23T17:54:50.562Z,11.10
2019-02-23T17:57:19.093Z,11.10
2019-02-23T17:59:47.659Z,11.10
2019-02-23T18:02:16.470Z,11.10
2019-02-23T18:04:44.979Z,11.20
2019-02-23T18:07:13.558Z,11.10
2019-02-23T18:09:42.025Z,11.10
2019-02-23T18:12:10.626Z,11.10
2019-02-23T18:14:39.125Z,11.00
2019-02-23T18:17:07.642Z,11.00
2019-02-23T18:19:36.086Z,11.00
2019-02-23T18:22:04.635Z,10.90
2019-02-23T18:24:33.050Z,10.90
2019-02-23T18:27:01.535Z,10.90
2019-02-23T18:29:30.035Z,10.80
2019-02-23T18:31:58.571Z,10.80
2019-02-23T18:34:27.010Z,10.80
2019-02-23T18:36:55.559Z,10.80
2019-02-23T18:39:24.135Z,10.80
2019-02-23T18:41:52.579Z,10.70
2019-02-23T18:44:21.129Z,10.70
2019-02-23T18:46:49.921Z,10.70
2019-02-23T18:49:18.406Z,10.70
2019-02-23T18:51:46.964Z,10.70
2019-02-23T18:54:16.830Z,10.70
2019-02-23T18:56:45.279Z,10.70
2019-02-23T18:59:13.743Z,10.70
2019-02-23T19:01:42.254Z,10.70
2019-02-23T19:04:12.302Z,10.60
2019-02-23T19:06:40.912Z,10.60
2019-02-23T19:09:09.375Z,10.50
2019-02-23T19:11:37.947Z,10.50
2019-02-23T19:14:06.445Z,10.40
2019-02-23T19:16:34.928Z,10.50
2019-02-23T19:19:03.382Z,10.40
2019-02-23T19:21:31.818Z,10.50
2019-02-23T19:24:00.275Z,10.40
2019-02-23T19:26:28.766Z,10.40
2019-02-23T19:28:57.290Z,10.40
2019-02-23T19:31:26.051Z,10.40
2019-02-23T19:33:54.578Z,10.40
2019-02-23T19:36:23.034Z,10.30
2019-02-23T19:38:51.519Z,10.30
2019-02-23T19:41:19.948Z,10.30
2019-02-23T19:43:48.414Z,10.40
2019-02-23T19:46:16.952Z,10.30
2019-02-23T19:48:45.520Z,10.30
2019-02-23T19:51:14.055Z,10.30
2019-02-23T19:53:43.337Z,10.30
2019-02-23T19:56:11.782Z,10.20
2019-02-23T19:58:40.229Z,10.20
2019-02-23T20:01:08.997Z,10.20
2019-02-23T20:03:37.435Z,10.20
2019-02-23T20:06:05.896Z,10.10
2019-02-23T20:08:34.432Z,10.10
2019-02-23T20:11:03.199Z,10.10
2019-02-23T20:13:31.653Z,10.10
2019-02-23T20:16:00.140Z,10.10
2019-02-23T20:18:28.867Z,10.10
2019-02-23T20:20:57.325Z,10.10
2019-02-23T20:23:25.783Z,10.10
2019-02-23T20:25:54.305Z,10.10
2019-02-23T20:28:22.747Z,10.10
2019-02-23T20:30:51.290Z,10.10
2019-02-23T20:33:19.731Z,10.10
2019-02-23T20:35:48.565Z,10.10
2019-02-23T20:38:17.112Z,10.00
2019-02-23T20:40:45.583Z,10.00
2019-02-23T20:43:14.013Z,9.90
2019-02-23T20:45:42.475Z,9.90
2019-02-23T20:48:10.975Z,9.80
2019-02-23T20:50:40.223Z,9.60
2019-02-23T20:53:10.061Z,9.50
2019-02-23T20:55:38.895Z,9.40
2019-02-23T20:58:07.505Z,9.20
2019-02-23T21:00:36.084Z,9.20
2019-02-23T21:03:04.670Z,9.20
2019-02-23T21:05:33.774Z,9.10
2019-02-23T21:08:02.200Z,9.20
2019-02-23T21:10:30.651Z,9.20
2019-02-23T21:12:59.282Z,9.20
2019-02-23T21:15:27.919Z,9.30
2019-02-23T21:17:56.440Z,9.40
2019-02-23T21:20:24.903Z,9.40
2019-02-23T21:22:53.406Z,9.30
2019-02-23T21:25:21.885Z,9.40
2019-02-23T21:27:50.331Z,9.20
2019-02-23T21:30:18.874Z,9.20
2019-02-23T21:32:47.303Z,9.10
2019-02-23T21:35:16.093Z,9.00
2019-02-23T21:37:44.694Z,8.90
2019-02-23T21:40:13.175Z,8.80
2019-02-23T21:42:41.642Z,8.90
2019-02-23T21:45:10.223Z,8.90
2019-02-23T21:47:39.027Z,8.90
2019-02-23T21:50:09.895Z,8.80
2019-02-23T21:52:38.439Z,8.70
2019-02-23T21:55:06.968Z,8.60
2019-02-23T21:57:35.819Z,8.50
2019-02-23T22:00:06.653Z,8.50
2019-02-23T22:02:35.119Z,8.40
2019-02-23T22:05:11.994Z,8.30
2019-02-23T22:07:35.377Z,8.20
2019-02-23T22:10:05.255Z,8.00
2019-02-23T22:12:33.744Z,7.90
2019-02-23T22:15:02.216Z,7.90
2019-02-23T22:17:30.749Z,8.00
2019-02-23T22:19:59.413Z,8.00
2019-02-23T22:22:28.420Z,8.00
2019-02-23T22:24:56.916Z,7.90
2019-02-23T22:27:31.108Z,7.90
2019-02-23T22:29:55.861Z,7.90
2019-02-23T22:32:24.380Z,7.90
2019-02-23T22:34:52.879Z,7.90
2019-02-23T22:37:21.478Z,8.00
2019-02-23T22:39:49.962Z,8.00
2019-02-23T22:42:18.548Z,8.00
2019-02-23T22:44:46.979Z,8.00
2019-02-23T22:47:15.439Z,7.90
2019-02-23T22:49:43.992Z,7.90
2019-02-23T22:52:12.475Z,7.80
2019-02-23T22:54:40.917Z,7.70
2019-02-23T22:57:09.837Z,7.60
2019-02-23T22:59:44.537Z,7.60
2019-02-23T23:02:13.196Z,7.60
2019-02-23T23:04:41.612Z,7.50
2019-02-23T23:07:10.166Z,7.50
2019-02-23T23:09:38.663Z,7.40
2019-02-23T23:12:07.182Z,7.30
2019-02-23T23:14:35.611Z,7.20
2019-02-23T23:17:04.109Z,7.20
2019-02-23T23:19:32.554Z,7.20
2019-02-23T23:22:01.024Z,7.10
2019-02-23T23:24:29.466Z,7.00
2019-02-23T23:26:57.915Z,7.00
2019-02-23T23:29:26.364Z,7.00
2019-02-23T23:31:54.870Z,6.90
2019-02-23T23:34:23.718Z,6.90
2019-02-23T23:36:52.159Z,6.80
2019-02-23T23:39:20.627Z,6.80
2019-02-23T23:41:49.366Z,6.80
2019-02-23T23:44:17.835Z,6.80
2019-02-23T23:46:46.267Z,6.80
2019-02-23T23:49:14.724Z,6.80
2019-02-23T23:51:43.154Z,6.70
2019-02-23T23:54:11.672Z,6.60
2019-02-23T23:56:40.098Z,6.50
2019-02-23T23:59:08.548Z,6.50
